Daniel Field
KDNL : now visible

Airfield :











YOU CAN JOIN US ON...

 
LOGIN :

Register | Disclaimer

   EN    FR    IT 

 









Legend :    VFR   Marginal VFR   IFR   Intensive IFR   Very Intensive IFR
Visi :
Ceiling :
>= 8 km
>= 3000ft
5 to 8 km
1000 to 3000 ft
1500m to 5 km
500 to 1000 ft
800 to 1500m
200 to 500 ft
< 800m
< 200 ft
Symbols :   Thunderstorms  Fog  Heavy snow  Heavy precipitations  Wind > 20 kt







- Airport Elevation : 423 ft


KDNL - Daniel Field

CURRENT METAR :
  • 181553Z AUTO 20009KT 10SM FEW032 SCT041 25/16 A3006 RMK AO2 SLP174 T02500156

EXPIRED METARs :
  • 181519Z AUTO 19012KT 10SM SCT024 BKN045 24/16 A3006 RMK AO2 T02390161
  • 181505Z AUTO 18006KT 10SM BKN023 BKN045 23/17 A3006 RMK AO2 T02330167
  • 181453Z AUTO 17009KT 10SM SCT023 23/17 A3006 RMK AO2 SLP175 T02330167 53007
  • 181353Z AUTO 17005KT 10SM FEW042 21/16 A3005 RMK AO2 SLP172 T02110161

TAF KDNL
Valid from the 18 at 15:00 until the 19 at 12:00 UTC


181443Z 1815/1912 18010KT P6SM SCT040 BKN250
FM181900 17010G18KT P6SM BKN050
FM190000 16010G18KT P6SM SCT050 BKN200
FM190400 16012G22KT P6SM SCT030 OVC040
KZTL FIR / North America



MET'MAP, your aeronautical weather chart ! - Copyright ORBIFLY December 2007 - Disclaimer

ORBIFLY MET'MAP TEAM :

Programming & Development : Alexandra Zaïnal
Concept & Development : Baudouin d'Aumeries
Co-Development & Prog : Marc-Olivier Méhu
Technical & hardware support : Manuel Goepfert

Contact : metmap@orbifly.com




SOURCES & CREDITS :

   NOAA       Earth
Advisory